createdAt,value
2018-03-31T00:00:55.547Z,6.84
2018-03-31T00:01:58.733Z,6.80
2018-03-31T00:03:01.835Z,6.76
2018-03-31T00:04:05.278Z,6.83
2018-03-31T00:05:08.362Z,6.78
2018-03-31T00:06:11.476Z,6.86
2018-03-31T00:07:14.884Z,6.89
2018-03-31T00:08:18.162Z,6.82
2018-03-31T00:09:21.230Z,6.78
2018-03-31T00:10:25.370Z,6.83
2018-03-31T00:11:28.435Z,6.84
2018-03-31T00:12:31.538Z,6.81
2018-03-31T00:13:34.819Z,6.76
2018-03-31T00:14:37.867Z,6.75
2018-03-31T00:15:40.994Z,6.74
2018-03-31T00:16:44.580Z,6.76
2018-03-31T00:17:47.887Z,6.78
2018-03-31T00:18:50.966Z,6.79
2018-03-31T00:19:54.230Z,6.73
2018-03-31T00:20:57.420Z,6.78
2018-03-31T00:22:00.613Z,6.79
2018-03-31T00:23:03.681Z,6.85
2018-03-31T00:24:06.913Z,6.82
2018-03-31T00:25:10.009Z,6.75
2018-03-31T00:26:13.045Z,6.80
2018-03-31T00:27:16.178Z,6.82
2018-03-31T00:28:19.474Z,6.84
2018-03-31T00:29:22.438Z,6.84
2018-03-31T00:30:26.140Z,6.86
2018-03-31T00:31:29.154Z,6.83
2018-03-31T00:32:32.222Z,6.77
2018-03-31T00:33:35.592Z,6.86
2018-03-31T00:34:38.655Z,6.87
2018-03-31T00:35:41.715Z,6.95
2018-03-31T00:36:44.928Z,7.03
2018-03-31T00:37:48.048Z,7.05
2018-03-31T00:38:51.450Z,7.07
2018-03-31T00:39:54.530Z,7.08
2018-03-31T00:40:57.906Z,7.02
2018-03-31T00:42:01.186Z,6.97
2018-03-31T00:43:04.309Z,6.88
2018-03-31T00:44:07.486Z,6.79
2018-03-31T00:45:13.190Z,6.69
2018-03-31T00:46:16.308Z,6.56
2018-03-31T00:47:19.758Z,6.42
2018-03-31T00:48:22.970Z,6.29
2018-03-31T00:49:26.075Z,6.23
2018-03-31T00:50:29.146Z,6.18
2018-03-31T00:51:32.140Z,6.25
2018-03-31T00:52:35.266Z,6.19
2018-03-31T00:53:38.799Z,6.30
2018-03-31T00:54:42.078Z,6.30
2018-03-31T00:55:45.387Z,6.26
2018-03-31T00:56:48.430Z,6.36
2018-03-31T00:57:51.634Z,6.50
2018-03-31T00:58:54.798Z,6.59
2018-03-31T00:59:58.537Z,6.71
2018-03-31T01:01:02.101Z,6.74
2018-03-31T01:02:05.495Z,6.78
2018-03-31T01:03:08.374Z,6.81
2018-03-31T01:04:11.518Z,6.75
2018-03-31T01:05:14.669Z,6.69
2018-03-31T01:06:36.781Z,6.55
2018-03-31T01:09:21.831Z,6.22
2018-03-31T01:10:30.854Z,6.14
2018-03-31T01:11:58.532Z,6.15
2018-03-31T01:13:23.312Z,6.14
2018-03-31T01:16:02.609Z,6.55
2018-03-31T01:17:07.071Z,6.60
2018-03-31T01:18:10.782Z,6.54
2018-03-31T01:19:13.919Z,6.39
2018-03-31T01:20:17.094Z,6.27
2018-03-31T01:21:20.334Z,6.24
2018-03-31T01:22:23.387Z,6.14
2018-03-31T01:23:26.419Z,6.11
2018-03-31T01:24:29.602Z,6.08
2018-03-31T01:25:32.683Z,6.08
2018-03-31T01:26:36.122Z,6.14
2018-03-31T01:27:39.126Z,6.16
2018-03-31T01:28:42.592Z,6.21
2018-03-31T01:29:45.667Z,6.21
2018-03-31T01:30:49.182Z,6.12
2018-03-31T01:31:52.890Z,6.03
2018-03-31T01:32:55.788Z,6.09
2018-03-31T01:33:58.981Z,6.34
2018-03-31T01:35:02.218Z,6.42
2018-03-31T01:36:05.572Z,6.39
2018-03-31T01:37:08.669Z,6.35
2018-03-31T01:38:11.609Z,6.44
2018-03-31T01:39:14.650Z,6.45
2018-03-31T01:40:17.908Z,6.46
2018-03-31T01:41:21.288Z,6.53
2018-03-31T01:42:25.644Z,6.76
2018-03-31T01:43:29.153Z,6.76
2018-03-31T01:44:33.314Z,6.67
2018-03-31T01:45:36.513Z,6.69
2018-03-31T01:46:39.576Z,6.61
2018-03-31T01:47:43.063Z,6.66
2018-03-31T01:48:46.119Z,6.81
2018-03-31T01:49:49.934Z,6.79
2018-03-31T01:50:53.262Z,6.64
2018-03-31T01:51:57.069Z,6.65
2018-03-31T01:52:59.923Z,6.76
2018-03-31T01:54:03.225Z,6.68
2018-03-31T01:55:06.323Z,6.60
2018-03-31T01:56:09.692Z,6.71
2018-03-31T01:57:12.761Z,6.63
2018-03-31T01:58:15.585Z,6.61
2018-03-31T01:59:19.064Z,6.59
2018-03-31T02:00:23.028Z,6.83
2018-03-31T02:01:27.404Z,7.06
2018-03-31T02:02:30.580Z,6.90
2018-03-31T02:03:34.390Z,6.89
2018-03-31T02:04:37.725Z,6.80
2018-03-31T02:05:40.876Z,6.75
2018-03-31T02:06:44.418Z,6.69
2018-03-31T02:07:47.430Z,6.63
2018-03-31T02:08:50.213Z,6.73
2018-03-31T02:09:53.370Z,6.75
2018-03-31T02:10:56.490Z,6.69
2018-03-31T02:11:59.742Z,6.78
2018-03-31T02:13:02.921Z,6.82
2018-03-31T02:14:06.099Z,6.91
2018-03-31T02:15:09.405Z,6.95
2018-03-31T02:16:12.644Z,6.87
2018-03-31T02:17:15.619Z,6.78
2018-03-31T02:18:18.753Z,6.70
2018-03-31T02:19:22.193Z,6.80
2018-03-31T02:20:25.513Z,6.80
2018-03-31T02:21:29.281Z,6.91
2018-03-31T02:22:32.288Z,6.92
2018-03-31T02:23:35.219Z,6.82
2018-03-31T02:24:38.084Z,6.91
2018-03-31T02:25:41.198Z,6.80
2018-03-31T02:26:44.176Z,6.69
2018-03-31T02:27:46.929Z,6.62
2018-03-31T02:28:49.751Z,6.58
2018-03-31T02:29:53.122Z,6.58
2018-03-31T02:30:56.565Z,6.55
2018-03-31T02:31:59.993Z,6.57
2018-03-31T02:33:03.240Z,6.63
2018-03-31T02:34:06.072Z,6.60
2018-03-31T02:35:09.101Z,6.61
2018-03-31T02:36:11.924Z,6.59
2018-03-31T02:37:14.867Z,6.64
2018-03-31T02:38:18.113Z,6.64
2018-03-31T02:39:20.877Z,6.68
2018-03-31T02:40:23.931Z,6.66
2018-03-31T02:41:27.129Z,6.67
2018-03-31T02:42:29.866Z,6.65
2018-03-31T02:43:32.825Z,6.68
2018-03-31T02:44:36.287Z,6.78
2018-03-31T02:45:39.236Z,6.84
2018-03-31T02:46:42.057Z,6.88
2018-03-31T02:47:44.890Z,6.86
2018-03-31T02:48:47.812Z,6.79
2018-03-31T02:49:50.859Z,6.76
2018-03-31T02:50:54.138Z,6.83
2018-03-31T02:51:57.271Z,6.86
2018-03-31T02:53:00.392Z,6.82
2018-03-31T02:54:03.441Z,6.75
2018-03-31T02:55:06.339Z,6.66
2018-03-31T02:56:09.419Z,6.53
2018-03-31T02:57:12.406Z,6.57
2018-03-31T02:58:15.233Z,6.52
2018-03-31T02:59:18.143Z,6.35
2018-03-31T03:00:21.775Z,6.32
2018-03-31T03:01:24.913Z,6.52
2018-03-31T03:02:28.140Z,6.44
2018-03-31T03:03:31.172Z,6.52
2018-03-31T03:04:34.327Z,6.56
2018-03-31T03:05:38.387Z,6.51
2018-03-31T03:06:41.505Z,6.50
2018-03-31T03:07:44.541Z,6.50
2018-03-31T03:08:47.260Z,6.48
2018-03-31T03:09:50.372Z,6.47
2018-03-31T03:10:53.646Z,6.50
2018-03-31T03:11:56.420Z,6.45
2018-03-31T03:12:59.207Z,6.37
2018-03-31T03:14:02.273Z,6.42
2018-03-31T03:15:05.865Z,6.38
2018-03-31T03:16:09.455Z,6.32
2018-03-31T03:17:12.260Z,6.35
2018-03-31T03:18:15.221Z,6.42
2018-03-31T03:19:17.990Z,6.37
2018-03-31T03:20:20.903Z,6.37
2018-03-31T03:21:24.055Z,6.30
2018-03-31T03:22:27.091Z,6.34
2018-03-31T03:23:29.916Z,6.31
2018-03-31T03:24:33.218Z,6.44
2018-03-31T03:25:35.956Z,6.42
2018-03-31T03:26:38.741Z,6.41
2018-03-31T03:27:41.519Z,6.52
2018-03-31T03:28:44.602Z,6.60
2018-03-31T03:29:47.409Z,6.57
2018-03-31T03:30:50.927Z,6.49
2018-03-31T03:31:53.829Z,6.49
2018-03-31T03:32:56.715Z,6.49
2018-03-31T03:34:00.056Z,6.42
2018-03-31T03:35:03.014Z,6.35
2018-03-31T03:36:05.951Z,6.34
2018-03-31T03:37:09.189Z,6.34
2018-03-31T03:38:12.314Z,6.37
2018-03-31T03:39:15.352Z,6.40
2018-03-31T03:40:18.126Z,6.36
2018-03-31T03:41:21.218Z,6.33
2018-03-31T03:42:23.939Z,6.34
2018-03-31T03:43:26.804Z,6.34
2018-03-31T03:44:29.769Z,6.35
2018-03-31T03:45:33.767Z,6.36
2018-03-31T03:46:37.054Z,6.35
2018-03-31T03:47:39.970Z,6.32
2018-03-31T03:48:42.897Z,6.23
2018-03-31T03:49:45.770Z,6.29
2018-03-31T03:50:48.606Z,6.30
2018-03-31T03:51:51.430Z,6.31
2018-03-31T03:52:54.332Z,6.32
2018-03-31T03:53:57.604Z,6.32
2018-03-31T03:55:00.370Z,6.29
2018-03-31T03:56:03.147Z,6.24
2018-03-31T03:57:05.969Z,6.24
2018-03-31T03:58:08.732Z,6.25
2018-03-31T03:59:11.426Z,6.25
2018-03-31T04:00:16.043Z,6.19
2018-03-31T04:01:19.465Z,6.19
2018-03-31T04:02:22.898Z,6.17
2018-03-31T04:03:25.978Z,6.19
2018-03-31T04:04:29.215Z,6.19
2018-03-31T04:05:32.055Z,6.19
2018-03-31T04:06:35.192Z,6.17
2018-03-31T04:07:39.004Z,6.13
2018-03-31T04:08:41.792Z,6.12
2018-03-31T04:09:44.672Z,6.09
2018-03-31T04:10:47.680Z,6.04
2018-03-31T04:11:50.712Z,6.04
2018-03-31T04:12:53.508Z,6.06
2018-03-31T04:13:56.489Z,6.06
2018-03-31T04:14:59.760Z,6.06
2018-03-31T04:16:02.856Z,6.03
2018-03-31T04:17:05.944Z,6.08
2018-03-31T04:18:08.999Z,6.03
2018-03-31T04:19:11.848Z,6.03
2018-03-31T04:20:14.816Z,6.08
2018-03-31T04:21:17.870Z,6.14
2018-03-31T04:22:21.343Z,6.07
2018-03-31T04:23:24.759Z,6.10
2018-03-31T04:24:28.081Z,6.10
2018-03-31T04:25:31.163Z,6.08
2018-03-31T04:26:33.876Z,6.07
2018-03-31T04:27:36.958Z,6.10
2018-03-31T04:28:40.507Z,6.04
2018-03-31T04:29:44.690Z,6.01
2018-03-31T04:30:48.071Z,6.03
2018-03-31T04:31:51.430Z,5.98
2018-03-31T04:32:54.658Z,5.91
2018-03-31T04:33:58.447Z,5.91
2018-03-31T04:35:02.010Z,5.89
2018-03-31T04:36:05.349Z,5.88
2018-03-31T04:37:08.314Z,5.90
2018-03-31T04:38:11.191Z,5.92
2018-03-31T04:39:14.129Z,5.91
2018-03-31T04:40:16.868Z,5.88
2018-03-31T04:41:19.664Z,5.84
2018-03-31T04:42:22.580Z,5.83
2018-03-31T04:43:25.686Z,5.79
2018-03-31T04:44:28.860Z,5.75
2018-03-31T04:45:32.070Z,5.73
2018-03-31T04:46:34.867Z,5.69
2018-03-31T04:47:37.701Z,5.70
2018-03-31T04:48:40.451Z,5.73
2018-03-31T04:49:44.209Z,5.75
2018-03-31T04:50:47.196Z,5.74
2018-03-31T04:51:50.100Z,5.75
2018-03-31T04:52:53.064Z,5.78
2018-03-31T04:53:56.107Z,5.76
2018-03-31T04:54:59.089Z,5.74
2018-03-31T04:56:02.119Z,5.76
2018-03-31T04:57:04.964Z,5.81
2018-03-31T04:58:08.095Z,5.82
2018-03-31T04:59:11.237Z,5.79
2018-03-31T05:00:15.928Z,5.80
2018-03-31T05:01:18.978Z,5.78
2018-03-31T05:02:22.165Z,5.77
2018-03-31T05:03:25.113Z,5.71
2018-03-31T05:04:28.308Z,5.69
2018-03-31T05:05:31.296Z,5.69
2018-03-31T05:06:34.349Z,5.71
2018-03-31T05:07:37.197Z,5.72
2018-03-31T05:08:39.987Z,5.70
2018-03-31T05:09:42.898Z,5.72
2018-03-31T05:10:46.234Z,5.71
2018-03-31T05:11:49.091Z,5.74
2018-03-31T05:12:52.367Z,5.74
2018-03-31T05:13:55.218Z,5.81
2018-03-31T05:14:58.404Z,5.83
2018-03-31T05:16:01.599Z,5.83
2018-03-31T05:17:04.340Z,5.81
2018-03-31T05:18:07.456Z,5.76
2018-03-31T05:19:10.470Z,5.73
2018-03-31T05:20:13.406Z,5.68
2018-03-31T05:21:17.125Z,5.67
2018-03-31T05:22:20.112Z,5.67
2018-03-31T05:23:23.280Z,5.66
2018-03-31T05:24:26.411Z,5.65
2018-03-31T05:25:29.964Z,5.62
2018-03-31T05:26:33.418Z,5.63
2018-03-31T05:27:36.583Z,5.64
2018-03-31T05:28:39.439Z,5.64
2018-03-31T05:29:42.478Z,5.61
2018-03-31T05:30:45.924Z,5.61
2018-03-31T05:31:49.186Z,5.59
2018-03-31T05:32:52.051Z,5.58
2018-03-31T05:33:55.071Z,5.63
2018-03-31T05:34:57.874Z,5.65
2018-03-31T05:36:00.710Z,5.72
2018-03-31T05:37:03.594Z,5.73
2018-03-31T05:38:06.296Z,5.71
2018-03-31T05:39:09.524Z,5.72
2018-03-31T05:40:13.059Z,5.73
2018-03-31T05:41:15.814Z,5.69
2018-03-31T05:42:18.581Z,5.67
2018-03-31T05:43:21.554Z,5.66
2018-03-31T05:44:24.761Z,5.64
2018-03-31T05:45:29.288Z,5.61
2018-03-31T05:46:32.722Z,5.61
2018-03-31T05:47:35.778Z,5.63
2018-03-31T05:48:39.859Z,5.59
2018-03-31T05:49:43.996Z,5.54
2018-03-31T05:50:47.298Z,5.55
2018-03-31T05:51:50.977Z,5.64
2018-03-31T05:52:53.880Z,5.70
2018-03-31T05:53:56.812Z,5.79
2018-03-31T05:55:00.293Z,5.79
2018-03-31T05:56:03.430Z,5.76
2018-03-31T05:57:06.598Z,5.76
2018-03-31T05:58:09.452Z,5.74
2018-03-31T05:59:12.654Z,5.81
2018-03-31T06:00:15.988Z,5.85
2018-03-31T06:01:19.144Z,5.77
2018-03-31T06:02:22.146Z,5.74
2018-03-31T06:03:25.273Z,5.65
2018-03-31T06:04:28.544Z,5.63
2018-03-31T06:05:31.911Z,5.70
2018-03-31T06:06:34.822Z,5.85
2018-03-31T06:07:37.942Z,5.86
2018-03-31T06:08:40.775Z,5.75
2018-03-31T06:09:44.102Z,5.82
2018-03-31T06:10:47.408Z,5.75
2018-03-31T06:11:50.834Z,5.75
2018-03-31T06:12:53.740Z,5.69
2018-03-31T06:13:56.736Z,5.78
2018-03-31T06:15:00.017Z,5.80
2018-03-31T06:16:03.938Z,5.76
2018-03-31T06:17:06.811Z,5.82
2018-03-31T06:18:10.513Z,5.86
2018-03-31T06:19:13.910Z,5.82
2018-03-31T06:20:17.453Z,5.83
2018-03-31T06:21:21.037Z,5.81
2018-03-31T06:22:23.996Z,5.74
2018-03-31T06:23:27.188Z,5.79
2018-03-31T06:24:30.798Z,5.80
2018-03-31T06:25:34.023Z,5.88
2018-03-31T06:26:37.532Z,5.91
2018-03-31T06:27:41.561Z,5.86
2018-03-31T06:28:44.819Z,5.82
2018-03-31T06:29:47.899Z,5.73
2018-03-31T06:30:51.397Z,5.82
2018-03-31T06:31:54.755Z,5.81
2018-03-31T06:32:57.656Z,5.72
2018-03-31T06:34:01.767Z,5.70
2018-03-31T06:35:04.931Z,5.68
2018-03-31T06:36:08.288Z,5.67
2018-03-31T06:37:11.286Z,5.67
2018-03-31T06:38:15.024Z,5.74
2018-03-31T06:39:18.236Z,5.80
2018-03-31T06:40:22.023Z,5.76
2018-03-31T06:41:25.701Z,5.78
2018-03-31T06:42:33.312Z,5.90
2018-03-31T06:43:37.625Z,5.93
2018-03-31T06:44:41.424Z,5.91
2018-03-31T06:45:44.972Z,5.98
2018-03-31T06:46:47.968Z,5.95
2018-03-31T06:47:50.971Z,5.94
2018-03-31T06:48:54.616Z,6.00
2018-03-31T06:49:57.777Z,6.04
2018-03-31T06:51:01.311Z,6.13
2018-03-31T06:52:04.835Z,6.16
2018-03-31T06:53:08.405Z,6.13
2018-03-31T06:54:11.924Z,6.08
2018-03-31T06:55:16.012Z,6.09
2018-03-31T06:56:19.823Z,6.13
2018-03-31T06:57:23.011Z,6.03
2018-03-31T06:58:26.991Z,6.06
2018-03-31T06:59:30.522Z,6.12
2018-03-31T07:00:34.757Z,6.08
2018-03-31T07:01:43.187Z,6.08
2018-03-31T07:02:46.270Z,6.11
2018-03-31T07:03:49.885Z,6.11
2018-03-31T07:04:53.396Z,6.26
2018-03-31T07:05:56.815Z,6.25
2018-03-31T07:07:00.585Z,6.22
2018-03-31T07:08:10.717Z,6.15
2018-03-31T07:09:13.940Z,6.11
2018-03-31T07:10:17.427Z,6.08
2018-03-31T07:12:31.090Z,6.21
2018-03-31T07:13:34.727Z,6.20
2018-03-31T07:14:47.394Z,6.11
2018-03-31T07:15:50.962Z,6.08
2018-03-31T07:16:54.388Z,6.07
2018-03-31T07:17:57.966Z,6.07
2018-03-31T07:19:01.481Z,6.02
2018-03-31T07:20:07.062Z,6.00
2018-03-31T07:21:10.576Z,6.07
2018-03-31T07:22:13.778Z,6.05
2018-03-31T07:23:17.240Z,6.02
2018-03-31T07:24:20.646Z,6.08
2018-03-31T07:25:24.365Z,6.12
2018-03-31T07:26:28.101Z,6.04
2018-03-31T07:27:36.537Z,5.95
2018-03-31T07:28:46.179Z,6.02
2018-03-31T07:29:49.655Z,6.03
2018-03-31T07:30:53.038Z,6.08
2018-03-31T07:31:56.432Z,6.16
2018-03-31T07:32:59.958Z,6.18
2018-03-31T07:34:03.832Z,6.21
2018-03-31T07:35:07.132Z,6.12
2018-03-31T07:36:10.262Z,6.13
2018-03-31T07:37:13.292Z,6.09
2018-03-31T07:38:16.972Z,6.08
2018-03-31T07:39:20.598Z,6.16
2018-03-31T07:40:24.301Z,6.20
2018-03-31T07:41:28.236Z,6.21
2018-03-31T07:42:31.620Z,6.29
2018-03-31T07:43:34.773Z,6.40
2018-03-31T07:44:37.847Z,6.35
2018-03-31T07:45:41.110Z,6.25
2018-03-31T07:46:45.594Z,6.17
2018-03-31T07:47:49.151Z,6.19
2018-03-31T07:48:53.931Z,6.19
2018-03-31T07:49:57.068Z,6.22
2018-03-31T07:51:00.318Z,6.18
2018-03-31T07:52:03.439Z,6.24
2018-03-31T07:53:06.684Z,6.27
2018-03-31T07:54:09.816Z,6.26
2018-03-31T07:55:13.253Z,6.24
2018-03-31T07:56:16.208Z,6.22
2018-03-31T07:57:19.353Z,6.21
2018-03-31T07:58:22.540Z,6.18
2018-03-31T07:59:25.553Z,6.25
2018-03-31T08:00:29.185Z,6.26
2018-03-31T08:01:32.641Z,6.22
2018-03-31T08:02:36.270Z,6.15
2018-03-31T08:03:39.299Z,6.06
2018-03-31T08:04:42.476Z,6.05
2018-03-31T08:05:45.441Z,6.01
2018-03-31T08:06:49.015Z,5.94
2018-03-31T08:07:52.932Z,5.87
2018-03-31T08:08:56.289Z,5.90
2018-03-31T08:09:59.900Z,5.93
2018-03-31T08:11:03.534Z,6.01
2018-03-31T08:12:06.615Z,6.07
2018-03-31T08:13:10.299Z,6.16
2018-03-31T08:14:13.283Z,6.21
2018-03-31T08:15:16.831Z,6.13
2018-03-31T08:16:19.970Z,6.05
2018-03-31T08:17:23.736Z,6.02
2018-03-31T08:18:27.393Z,6.08
2018-03-31T08:19:30.912Z,6.17
2018-03-31T08:20:34.000Z,6.21
2018-03-31T08:21:37.111Z,6.18
2018-03-31T08:22:40.471Z,6.23
2018-03-31T08:23:44.815Z,6.23
2018-03-31T08:24:48.063Z,5.98
2018-03-31T08:25:51.829Z,5.85
2018-03-31T08:26:54.993Z,5.86
2018-03-31T08:27:58.050Z,5.95
2018-03-31T08:29:01.274Z,5.95
2018-03-31T08:30:05.921Z,6.00
2018-03-31T08:31:09.599Z,6.14
2018-03-31T08:32:12.887Z,6.21
2018-03-31T08:33:15.928Z,6.23
2018-03-31T08:34:19.046Z,6.17
2018-03-31T08:35:22.119Z,6.10
2018-03-31T08:36:25.133Z,6.02
2018-03-31T08:37:28.246Z,6.00
2018-03-31T08:38:31.917Z,6.03
2018-03-31T08:39:35.767Z,6.03
2018-03-31T08:40:38.787Z,6.00
2018-03-31T08:41:41.997Z,5.98
2018-03-31T08:42:45.171Z,6.02
2018-03-31T08:43:49.230Z,6.02
2018-03-31T08:44:52.754Z,6.06
2018-03-31T08:45:55.878Z,6.11
2018-03-31T08:46:58.883Z,6.13
2018-03-31T08:48:02.176Z,6.10
2018-03-31T08:49:05.375Z,6.10
2018-03-31T08:50:08.424Z,6.17
2018-03-31T08:51:11.726Z,6.15
2018-03-31T08:52:14.784Z,6.15
2018-03-31T08:53:18.017Z,6.28
2018-03-31T08:54:21.734Z,6.26
2018-03-31T08:55:24.668Z,6.31
2018-03-31T08:56:27.793Z,6.28
2018-03-31T08:57:30.996Z,6.16
2018-03-31T08:58:34.112Z,6.20
2018-03-31T08:59:37.303Z,6.27
2018-03-31T09:00:40.782Z,6.22
2018-03-31T09:01:43.781Z,6.28
2018-03-31T09:02:46.851Z,6.24
2018-03-31T09:03:50.586Z,6.13
2018-03-31T09:04:53.789Z,6.03
2018-03-31T09:05:56.835Z,6.14
2018-03-31T09:06:59.875Z,6.24
2018-03-31T09:08:03.091Z,6.32
2018-03-31T09:09:06.034Z,6.53
2018-03-31T09:10:09.070Z,6.56
2018-03-31T09:11:12.082Z,6.52
2018-03-31T09:12:15.185Z,6.56
2018-03-31T09:13:18.394Z,6.64
2018-03-31T09:14:21.630Z,6.76
2018-03-31T09:15:25.280Z,6.89
2018-03-31T09:16:28.729Z,7.07
2018-03-31T09:17:31.794Z,7.15
2018-03-31T09:18:34.888Z,7.22
2018-03-31T09:19:38.025Z,7.20
2018-03-31T09:20:41.174Z,7.23
2018-03-31T09:21:44.217Z,7.27
2018-03-31T09:22:48.174Z,7.22
2018-03-31T09:23:51.385Z,7.09
2018-03-31T09:24:54.397Z,6.90
2018-03-31T09:25:57.495Z,6.64
2018-03-31T09:27:00.545Z,6.43
2018-03-31T09:28:03.790Z,6.26
2018-03-31T09:29:07.252Z,6.22
2018-03-31T09:30:10.289Z,6.28
2018-03-31T09:31:13.328Z,6.29
2018-03-31T09:32:16.401Z,6.32
2018-03-31T09:33:19.588Z,6.41
2018-03-31T09:34:22.959Z,6.53
2018-03-31T09:35:26.619Z,6.63
2018-03-31T09:36:29.586Z,6.50
2018-03-31T09:37:32.579Z,6.38
2018-03-31T09:38:36.008Z,6.33
2018-03-31T09:39:39.436Z,6.37
2018-03-31T09:40:42.498Z,6.53
2018-03-31T09:41:45.785Z,6.72
2018-03-31T09:42:48.888Z,6.91
2018-03-31T09:43:52.543Z,7.13
2018-03-31T09:44:55.544Z,7.50
2018-03-31T09:45:59.052Z,7.53
2018-03-31T09:47:02.047Z,7.70
2018-03-31T09:48:05.405Z,7.46
2018-03-31T09:49:08.407Z,7.29
2018-03-31T09:50:11.403Z,7.23
2018-03-31T09:51:14.457Z,7.14
2018-03-31T09:52:17.606Z,7.03
2018-03-31T09:53:21.018Z,6.92
2018-03-31T09:54:24.230Z,6.97
2018-03-31T09:55:27.389Z,7.06
2018-03-31T09:56:30.468Z,7.14
2018-03-31T09:57:33.543Z,7.48
2018-03-31T09:58:36.605Z,7.50
2018-03-31T09:59:40.010Z,7.25
2018-03-31T10:00:44.143Z,7.28
2018-03-31T10:01:47.887Z,7.34
2018-03-31T10:02:50.926Z,7.39
2018-03-31T10:03:53.947Z,7.63
2018-03-31T10:04:57.181Z,7.86
2018-03-31T10:06:00.497Z,8.15
2018-03-31T10:07:03.778Z,8.01
2018-03-31T10:08:06.935Z,8.13
2018-03-31T10:09:10.022Z,8.05
2018-03-31T10:10:12.906Z,8.17
2018-03-31T10:11:15.810Z,8.24
2018-03-31T10:12:19.254Z,8.24
2018-03-31T10:13:22.351Z,8.33
2018-03-31T10:14:25.386Z,8.39
2018-03-31T10:15:28.841Z,8.47
2018-03-31T10:16:31.973Z,8.63
2018-03-31T10:17:34.860Z,8.70
2018-03-31T10:18:38.098Z,8.51
2018-03-31T10:19:41.417Z,8.33
2018-03-31T10:20:44.588Z,8.12
2018-03-31T10:21:47.816Z,7.97
2018-03-31T10:22:50.846Z,7.82
2018-03-31T10:23:53.909Z,7.88
2018-03-31T10:24:57.448Z,8.02
2018-03-31T10:26:00.572Z,7.99
2018-03-31T10:27:03.913Z,7.86
2018-03-31T10:28:07.111Z,7.94
2018-03-31T10:29:10.314Z,7.96
2018-03-31T10:30:15.089Z,8.06
2018-03-31T10:31:18.164Z,8.30
2018-03-31T10:32:21.322Z,8.56
2018-03-31T10:33:24.748Z,8.80
2018-03-31T10:34:27.991Z,8.75
2018-03-31T10:35:31.110Z,8.81
2018-03-31T10:36:34.743Z,8.96
2018-03-31T10:37:38.124Z,8.84
2018-03-31T10:38:41.328Z,8.67
2018-03-31T10:39:44.558Z,8.59
2018-03-31T10:40:47.765Z,8.67
2018-03-31T10:41:50.805Z,8.72
2018-03-31T10:42:53.772Z,9.02
2018-03-31T10:43:56.741Z,9.07
2018-03-31T10:44:59.693Z,9.03
2018-03-31T10:46:03.188Z,9.05
2018-03-31T10:47:06.215Z,9.07
2018-03-31T10:48:09.407Z,9.12
2018-03-31T10:49:12.901Z,9.11
2018-03-31T10:50:16.052Z,9.02
2018-03-31T10:51:19.048Z,9.03
2018-03-31T10:52:21.980Z,9.02
2018-03-31T10:53:25.258Z,8.90
2018-03-31T10:54:28.436Z,8.88
2018-03-31T10:55:31.419Z,8.91
2018-03-31T10:56:34.446Z,8.69
2018-03-31T10:57:37.420Z,8.51
2018-03-31T10:58:40.418Z,8.53
2018-03-31T10:59:43.449Z,8.53
2018-03-31T11:00:47.146Z,8.60
2018-03-31T11:01:50.137Z,8.67
2018-03-31T11:02:54.150Z,8.74
2018-03-31T11:03:57.243Z,8.48
2018-03-31T11:05:00.288Z,8.57
2018-03-31T11:06:03.275Z,8.70
2018-03-31T11:07:06.400Z,8.88
2018-03-31T11:08:09.604Z,8.89
2018-03-31T11:09:12.671Z,8.92
2018-03-31T11:10:15.660Z,8.79
2018-03-31T11:11:18.776Z,8.57
2018-03-31T11:12:21.812Z,8.70
2018-03-31T11:13:25.176Z,9.05
2018-03-31T11:14:28.266Z,9.34
2018-03-31T11:15:31.966Z,9.54
2018-03-31T11:16:35.018Z,9.46
2018-03-31T11:17:38.033Z,9.48
2018-03-31T11:18:41.032Z,9.43
2018-03-31T11:19:44.279Z,9.43
2018-03-31T11:20:48.353Z,9.49
2018-03-31T11:21:51.313Z,9.35
2018-03-31T11:22:55.297Z,9.25
2018-03-31T11:23:59.297Z,9.29
2018-03-31T11:25:02.426Z,9.11
2018-03-31T11:26:05.700Z,8.94
2018-03-31T11:27:08.670Z,8.86
2018-03-31T11:28:12.357Z,8.85
2018-03-31T11:29:15.531Z,8.90
2018-03-31T11:30:18.856Z,8.92
2018-03-31T11:31:22.000Z,8.99
2018-03-31T11:32:25.199Z,9.00
2018-03-31T11:33:28.367Z,8.80
2018-03-31T11:34:31.338Z,8.59
2018-03-31T11:35:34.453Z,8.46
2018-03-31T11:36:37.534Z,8.28
2018-03-31T11:37:40.724Z,8.29
2018-03-31T11:38:44.095Z,8.27
2018-03-31T11:39:47.158Z,8.19
2018-03-31T11:40:51.032Z,7.99
2018-03-31T11:41:54.315Z,7.87
2018-03-31T11:42:57.583Z,7.76
2018-03-31T11:44:00.505Z,7.57
2018-03-31T11:45:05.673Z,7.34
2018-03-31T11:46:09.205Z,7.19
2018-03-31T11:47:12.337Z,7.15
2018-03-31T11:48:15.326Z,7.24
2018-03-31T11:49:18.233Z,7.23
2018-03-31T11:50:21.168Z,7.31
2018-03-31T11:51:24.212Z,7.25
2018-03-31T11:52:27.224Z,7.30
2018-03-31T11:53:30.236Z,7.35
2018-03-31T11:54:33.293Z,7.22
2018-03-31T11:55:36.445Z,7.21
2018-03-31T11:56:39.461Z,7.20
2018-03-31T11:57:42.687Z,7.29
2018-03-31T11:58:45.970Z,7.29
2018-03-31T11:59:49.235Z,7.29
2018-03-31T12:00:53.356Z,7.22
2018-03-31T12:01:56.349Z,7.25
2018-03-31T12:03:00.052Z,7.18
2018-03-31T12:04:03.478Z,7.21
2018-03-31T12:05:06.547Z,7.30
2018-03-31T12:06:09.467Z,7.26
2018-03-31T12:07:12.629Z,7.20
2018-03-31T12:08:15.797Z,7.19
2018-03-31T12:09:18.952Z,7.06
2018-03-31T12:10:22.268Z,6.89
2018-03-31T12:11:25.205Z,6.86
2018-03-31T12:12:28.243Z,6.93
2018-03-31T12:13:31.376Z,7.03
2018-03-31T12:14:34.539Z,7.12
2018-03-31T12:15:37.821Z,7.23
2018-03-31T12:16:41.283Z,7.34
2018-03-31T12:17:44.294Z,7.47
2018-03-31T12:18:47.578Z,7.49
2018-03-31T12:19:50.611Z,7.46
2018-03-31T12:20:53.697Z,7.37
2018-03-31T12:21:56.721Z,7.33
2018-03-31T12:23:00.129Z,7.33
2018-03-31T12:24:03.338Z,7.31
2018-03-31T12:25:06.286Z,7.38
2018-03-31T12:26:09.364Z,7.27
2018-03-31T12:27:12.376Z,7.21
2018-03-31T12:28:15.533Z,7.15
2018-03-31T12:29:18.889Z,7.16
2018-03-31T12:30:22.362Z,7.12
2018-03-31T12:31:25.285Z,7.13
2018-03-31T12:32:28.322Z,7.24
2018-03-31T12:33:31.392Z,7.47
2018-03-31T12:34:34.442Z,7.61
2018-03-31T12:35:37.571Z,7.66
2018-03-31T12:36:40.725Z,7.74
2018-03-31T12:37:43.944Z,7.73
2018-03-31T12:38:46.924Z,7.76
2018-03-31T12:39:49.902Z,7.80
2018-03-31T12:40:52.800Z,7.91
2018-03-31T12:41:56.126Z,7.95
2018-03-31T12:42:59.143Z,8.03
2018-03-31T12:44:02.211Z,8.15
2018-03-31T12:45:05.350Z,8.30
2018-03-31T12:46:08.983Z,8.34
2018-03-31T12:47:12.263Z,8.25
2018-03-31T12:48:15.558Z,8.23
2018-03-31T12:49:18.646Z,8.29
2018-03-31T12:50:21.818Z,8.34
2018-03-31T12:51:24.866Z,8.51
2018-03-31T12:52:27.860Z,8.79
2018-03-31T12:53:30.776Z,8.86
2018-03-31T12:54:34.045Z,9.00
2018-03-31T12:55:36.955Z,9.19
2018-03-31T12:56:40.060Z,9.41
2018-03-31T12:57:43.088Z,9.78
2018-03-31T12:58:46.478Z,10.22
2018-03-31T12:59:49.583Z,10.46
2018-03-31T13:00:53.218Z,10.47
2018-03-31T13:01:56.328Z,10.33
2018-03-31T13:02:59.412Z,10.25
2018-03-31T13:04:02.491Z,10.08
2018-03-31T13:05:06.320Z,10.05
2018-03-31T13:06:10.196Z,10.11
2018-03-31T13:07:13.546Z,10.27
2018-03-31T13:08:16.691Z,10.34
2018-03-31T13:09:19.727Z,10.07
2018-03-31T13:10:22.896Z,9.73
2018-03-31T13:11:25.843Z,9.73
2018-03-31T13:12:28.780Z,10.06
2018-03-31T13:13:32.296Z,10.17
2018-03-31T13:14:35.484Z,10.08
2018-03-31T13:15:38.626Z,10.14
2018-03-31T13:16:41.943Z,10.12
2018-03-31T13:17:45.067Z,10.10
2018-03-31T13:18:48.121Z,10.01
2018-03-31T13:19:51.327Z,10.05
2018-03-31T13:20:54.454Z,10.08
2018-03-31T13:21:57.522Z,10.17
2018-03-31T13:23:00.541Z,10.19
2018-03-31T13:24:03.630Z,10.10
2018-03-31T13:25:06.849Z,10.10
2018-03-31T13:26:10.993Z,9.99
2018-03-31T13:27:15.092Z,9.77
2018-03-31T13:28:18.142Z,9.60
2018-03-31T13:29:21.170Z,9.58
2018-03-31T13:30:24.199Z,9.53
2018-03-31T13:31:27.142Z,9.50
2018-03-31T13:32:30.178Z,9.56
2018-03-31T13:33:33.409Z,9.67
2018-03-31T13:34:36.364Z,9.71
2018-03-31T13:35:39.376Z,9.80
2018-03-31T13:36:42.459Z,9.47
2018-03-31T13:37:45.987Z,9.22
2018-03-31T13:38:48.976Z,9.24
2018-03-31T13:39:52.055Z,9.57
2018-03-31T13:40:54.995Z,9.80
2018-03-31T13:41:58.132Z,9.85
2018-03-31T13:43:01.085Z,9.87
2018-03-31T13:44:04.175Z,9.69
2018-03-31T13:45:07.541Z,9.81
2018-03-31T13:46:10.546Z,9.96
2018-03-31T13:47:15.135Z,10.17
2018-03-31T13:48:18.486Z,10.04
2018-03-31T13:49:21.480Z,10.12
2018-03-31T13:50:24.761Z,10.27
2018-03-31T13:51:27.890Z,10.25
2018-03-31T13:52:30.861Z,10.19
2018-03-31T13:53:34.026Z,10.02
2018-03-31T13:54:36.977Z,10.01
2018-03-31T13:55:40.030Z,9.80
2018-03-31T13:56:43.236Z,9.68
2018-03-31T13:57:46.377Z,9.70
2018-03-31T13:58:49.851Z,9.89
2018-03-31T13:59:52.964Z,9.95
2018-03-31T14:00:56.327Z,9.83
2018-03-31T14:01:59.592Z,9.74
2018-03-31T14:03:03.525Z,9.91
2018-03-31T14:04:06.606Z,9.94
2018-03-31T14:05:10.767Z,9.97
2018-03-31T14:06:13.775Z,10.04
2018-03-31T14:07:17.318Z,10.03